createdAt,value
2023-03-23T15:58:11.937Z,61.39
2023-03-23T16:00:41.470Z,61.62
2023-03-23T16:03:16.631Z,62.89
2023-03-23T16:05:45.577Z,61.86
2023-03-23T16:08:16.643Z,62.49
2023-03-23T16:10:46.757Z,62.01
2023-03-23T16:13:15.742Z,61.03
2023-03-23T16:15:44.352Z,60.97
2023-03-23T16:18:22.555Z,59.54
2023-03-23T16:20:51.712Z,58.87
2023-03-23T16:23:20.064Z,57.82
2023-03-23T16:25:50.398Z,58.66
2023-03-23T16:28:20.630Z,57.64
2023-03-23T16:30:49.404Z,58.92
2023-03-23T16:33:17.710Z,57.93
2023-03-23T16:35:46.235Z,58.51
2023-03-23T16:38:16.315Z,58.66
2023-03-23T16:40:45.715Z,58.47
2023-03-23T16:43:15.700Z,58.25
2023-03-23T16:45:46.273Z,58.25
2023-03-23T16:48:16.886Z,58.06
2023-03-23T16:50:46.163Z,58.63
2023-03-23T16:53:14.652Z,59.26
2023-03-23T16:55:47.830Z,59.41
2023-03-23T16:58:18.321Z,60.04
2023-03-23T17:00:49.428Z,60.73
2023-03-23T17:03:18.820Z,60.30
2023-03-23T17:05:49.075Z,61.21
2023-03-23T17:08:17.772Z,61.50
2023-03-23T17:10:46.314Z,62.07
2023-03-23T17:13:14.749Z,61.27
2023-03-23T17:15:47.228Z,62.05
2023-03-23T17:18:16.738Z,61.25
2023-03-23T17:20:45.473Z,61.74
2023-03-23T17:23:14.020Z,61.47
2023-03-23T17:25:42.934Z,61.67
2023-03-23T17:28:11.455Z,61.25
2023-03-23T17:30:41.978Z,62.29
2023-03-23T17:33:11.830Z,61.79
2023-03-23T17:35:40.477Z,61.57
2023-03-23T17:38:08.712Z,61.97
2023-03-23T17:40:37.031Z,61.47
2023-03-23T17:43:07.077Z,61.95
2023-03-23T17:45:36.530Z,62.42
2023-03-23T17:48:07.705Z,61.94
2023-03-23T17:50:37.902Z,62.74
2023-03-23T17:53:06.264Z,61.61
2023-03-23T17:55:37.163Z,62.44
2023-03-23T17:58:05.489Z,61.50
2023-03-23T18:00:33.807Z,62.19
2023-03-23T18:03:02.123Z,62.37
2023-03-23T18:05:31.955Z,62.01
2023-03-23T18:08:01.891Z,61.86
2023-03-23T18:10:30.112Z,62.05
2023-03-23T18:12:58.404Z,61.63
2023-03-23T18:15:28.388Z,61.95
2023-03-23T18:17:58.470Z,61.67
2023-03-23T18:20:27.093Z,61.31
2023-03-23T18:22:55.400Z,61.59
2023-03-23T18:25:26.055Z,61.59
2023-03-23T18:27:54.495Z,61.14
2023-03-23T18:30:26.835Z,60.35
2023-03-23T18:32:55.283Z,60.32
2023-03-23T18:35:23.864Z,60.45
2023-03-23T18:37:52.117Z,59.77
2023-03-23T18:40:21.167Z,59.81
2023-03-23T18:42:50.876Z,59.56
2023-03-23T18:45:19.272Z,58.81
2023-03-23T18:47:47.694Z,59.61
2023-03-23T18:50:16.114Z,59.32
2023-03-23T18:52:45.462Z,59.57
2023-03-23T18:55:13.678Z,59.38
2023-03-23T18:57:42.066Z,58.29
2023-03-23T19:00:13.082Z,58.32
2023-03-23T19:02:41.880Z,58.36
2023-03-23T19:05:11.000Z,58.28
2023-03-23T19:07:39.684Z,58.45
2023-03-23T19:10:08.397Z,58.37
2023-03-23T19:12:36.997Z,58.30
2023-03-23T19:15:06.655Z,58.44
2023-03-23T19:17:37.641Z,57.61
2023-03-23T19:20:07.661Z,58.54
2023-03-23T19:22:36.088Z,58.75
2023-03-23T19:25:04.859Z,58.36
2023-03-23T19:27:33.384Z,58.51
2023-03-23T19:30:01.871Z,58.19
2023-03-23T19:32:30.252Z,58.32
2023-03-23T19:35:00.330Z,58.41
2023-03-23T19:37:28.733Z,58.39
2023-03-23T19:40:16.260Z,58.80
2023-03-23T19:42:52.809Z,58.87
2023-03-23T19:45:21.519Z,58.22
2023-03-23T19:47:49.956Z,59.23
2023-03-23T19:50:19.796Z,58.67
2023-03-23T19:52:48.040Z,59.44
2023-03-23T19:55:16.875Z,58.83
2023-03-23T19:57:45.254Z,59.11
2023-03-23T20:00:14.826Z,59.85
2023-03-23T20:02:43.179Z,59.13
2023-03-23T20:05:12.409Z,59.39
2023-03-23T20:07:45.848Z,59.35
2023-03-23T20:10:18.338Z,60.02
2023-03-23T20:12:46.928Z,60.00
2023-03-23T20:15:15.490Z,61.02
2023-03-23T20:17:44.093Z,59.71
2023-03-23T20:20:12.468Z,59.98
2023-03-23T20:22:42.572Z,61.01
2023-03-23T20:25:11.567Z,60.84
2023-03-23T20:27:40.966Z,60.84
2023-03-23T20:30:10.118Z,61.46
2023-03-23T20:32:40.614Z,60.90
2023-03-23T20:35:13.132Z,61.47
2023-03-23T20:37:42.845Z,60.83
2023-03-23T20:40:14.650Z,60.93
2023-03-23T20:42:44.208Z,61.86
2023-03-23T20:45:14.728Z,61.42
2023-03-23T20:47:43.785Z,61.08
2023-03-23T20:50:12.423Z,60.82
2023-03-23T20:52:42.319Z,60.66
2023-03-23T20:55:10.960Z,60.53
2023-03-23T20:57:40.282Z,59.61
2023-03-23T21:00:11.436Z,59.32
2023-03-23T21:02:40.080Z,59.35
2023-03-23T21:05:09.065Z,59.86
2023-03-23T21:07:37.627Z,59.44
2023-03-23T21:10:07.684Z,59.57
2023-03-23T21:12:36.019Z,59.31
2023-03-23T21:15:05.405Z,58.74
2023-03-23T21:17:33.907Z,59.08
2023-03-23T21:20:05.465Z,58.87
2023-03-23T21:22:34.953Z,58.16
2023-03-23T21:25:03.590Z,58.17
2023-03-23T21:27:33.262Z,58.61
2023-03-23T21:30:01.557Z,58.51
2023-03-23T21:32:29.879Z,58.51
2023-03-23T21:35:02.453Z,58.18
2023-03-23T21:37:30.812Z,58.35
2023-03-23T21:39:59.084Z,58.23
2023-03-23T21:42:30.347Z,58.20
2023-03-23T21:45:02.743Z,57.82
2023-03-23T21:47:31.634Z,57.96
2023-03-23T21:50:00.531Z,58.06
2023-03-23T21:52:29.304Z,58.24
2023-03-23T21:54:59.464Z,58.25
2023-03-23T21:57:28.286Z,58.07
2023-03-23T21:59:56.885Z,58.19
2023-03-23T22:02:26.882Z,58.05
2023-03-23T22:04:56.797Z,58.14
2023-03-23T22:07:27.942Z,58.31
2023-03-23T22:09:57.694Z,57.94
2023-03-23T22:12:26.554Z,57.94
2023-03-23T22:14:55.017Z,57.87
2023-03-23T22:17:23.452Z,57.76
2023-03-23T22:19:53.274Z,58.11
2023-03-23T22:22:21.764Z,58.06
2023-03-23T22:24:51.646Z,57.88
2023-03-23T22:27:20.214Z,57.94
2023-03-23T22:29:48.605Z,57.64
2023-03-23T22:32:17.145Z,57.60
2023-03-23T22:34:47.334Z,57.73
2023-03-23T22:37:18.769Z,57.48
2023-03-23T22:39:47.290Z,57.06
2023-03-23T22:42:15.817Z,57.20
2023-03-23T22:44:44.244Z,57.15
2023-03-23T22:47:12.654Z,56.88
2023-03-23T22:49:41.140Z,57.11
2023-03-23T22:52:09.541Z,56.66
2023-03-23T22:54:39.333Z,56.98
2023-03-23T22:57:07.861Z,56.93
2023-03-23T22:59:36.377Z,56.81
2023-03-23T23:02:04.796Z,56.63
2023-03-23T23:04:34.355Z,56.73
2023-03-23T23:07:10.336Z,56.60
2023-03-23T23:09:42.332Z,56.56
2023-03-23T23:12:11.355Z,56.70
2023-03-23T23:14:39.968Z,56.58
2023-03-23T23:17:08.381Z,56.52
2023-03-23T23:19:37.579Z,56.39
2023-03-23T23:22:18.430Z,56.42
2023-03-23T23:24:49.051Z,56.35
2023-03-23T23:27:18.137Z,56.40
2023-03-23T23:29:49.464Z,56.77
2023-03-23T23:32:17.976Z,56.42
2023-03-23T23:34:46.838Z,56.22
2023-03-23T23:37:15.400Z,56.52
2023-03-23T23:39:43.882Z,56.29
2023-03-23T23:42:13.635Z,56.40
2023-03-23T23:44:43.270Z,56.32
2023-03-23T23:47:12.266Z,56.32
2023-03-23T23:49:40.906Z,56.64
2023-03-23T23:52:09.533Z,56.51
2023-03-23T23:54:37.981Z,56.23
2023-03-23T23:57:06.729Z,56.33
2023-03-23T23:59:36.958Z,56.55
